Time;durP1;ratioP1;P1;durP2;ratioP2;P2;SDS_P1;SDS_P2;PMS_P1;PMS_P2;Temp;Humidity;BMP_temperature;BMP_pressure;BME280_temperature;BME280_humidity;BME280_pressure;Samples;Min_cycle;Max_cycle;Signal;HPM_P1;HPM_P2
2023/07/02 00:00:01;;;;;;;15.55;10.57;;;;;;;;;;4402404;32;317926;-79
2023/07/02 00:02:28;;;;;;;15.73;9.00;;;;;;;;;;4379166;32;388726;-79
2023/07/02 00:04:56;;;;;;;12.30;8.75;;;;;;;;;;4389647;32;417439;-79
2023/07/02 00:07:25;;;;;;;13.93;8.27;;;;;;;;;;4402322;32;317883;-79
2023/07/02 00:09:53;;;;;;;16.17;8.13;;;;;;;;;;4390902;32;318014;-79
2023/07/02 00:12:20;;;;;;;17.75;9.05;;;;;;;;;;4402184;32;318137;-79
2023/07/02 00:14:52;;;;;;;19.70;8.60;;;;;;;;;;4390812;32;317806;-79
2023/07/02 00:17:20;;;;;;;14.90;8.48;;;;;;;;;;4399894;32;317779;-79
2023/07/02 00:19:51;;;;;;;24.80;9.23;;;;;;;;;;4391740;32;317765;-79
2023/07/02 00:22:19;;;;;;;16.33;8.80;;;;;;;;;;4402322;32;317779;-79
2023/07/02 00:24:46;;;;;;;16.02;9.07;;;;;;;;;;4392135;32;317735;-79
2023/07/02 00:27:13;;;;;;;19.92;9.10;;;;;;;;;;4401530;32;317913;-79
2023/07/02 00:29:41;;;;;;;33.67;10.35;;;;;;;;;;4391065;32;317828;-79
2023/07/02 00:32:10;;;;;;;21.15;10.93;;;;;;;;;;4401835;32;319148;-79
2023/07/02 00:34:37;;;;;;;11.73;7.97;;;;;;;;;;4390578;32;318839;-79
2023/07/02 00:37:05;;;;;;;19.02;8.30;;;;;;;;;;4399962;32;318078;-79
2023/07/02 00:39:32;;;;;;;16.48;8.65;;;;;;;;;;4392057;32;317815;-79
2023/07/02 00:42:02;;;;;;;12.15;8.07;;;;;;;;;;4401195;32;356460;-79
2023/07/02 00:44:30;;;;;;;19.20;9.45;;;;;;;;;;4389591;32;317884;-80
2023/07/02 00:46:57;;;;;;;16.12;8.25;;;;;;;;;;4401661;32;317855;-79
2023/07/02 00:49:27;;;;;;;16.37;9.38;;;;;;;;;;4400675;32;318697;-79
2023/07/02 00:51:55;;;;;;;19.50;8.80;;;;;;;;;;4387904;32;416953;-78
2023/07/02 00:54:22;;;;;;;13.98;8.25;;;;;;;;;;4402066;32;318522;-79
2023/07/02 00:56:50;;;;;;;16.20;7.65;;;;;;;;;;4389066;32;318678;-79
2023/07/02 00:59:18;;;;;;;12.52;7.93;;;;;;;;;;4401559;32;318095;-79
2023/07/02 01:01:49;;;;;;;16.55;8.77;;;;;;;;;;4390263;32;318028;-79
2023/07/02 01:04:19;;;;;;;15.98;8.90;;;;;;;;;;4401873;32;317766;-79
2023/07/02 01:06:49;;;;;;;15.93;8.43;;;;;;;;;;4390443;32;318252;-79
2023/07/02 01:09:17;;;;;;;16.67;8.00;;;;;;;;;;4398878;32;317666;-78
2023/07/02 01:11:47;;;;;;;23.27;8.80;;;;;;;;;;4390840;32;318105;-79
2023/07/02 01:14:18;;;;;;;11.40;8.20;;;;;;;;;;4400763;32;317735;-79
2023/07/02 01:16:48;;;;;;;16.02;9.10;;;;;;;;;;4390705;32;330064;-79
2023/07/02 01:19:22;;;;;;;14.25;9.50;;;;;;;;;;4401171;32;317962;-78
2023/07/02 01:21:51;;;;;;;15.00;8.80;;;;;;;;;;4390872;32;317790;-79
2023/07/02 01:24:21;;;;;;;13.48;8.70;;;;;;;;;;4400417;32;317651;-79
2023/07/02 01:26:48;;;;;;;15.43;8.68;;;;;;;;;;4391059;32;317821;-78
2023/07/02 01:29:16;;;;;;;18.98;9.32;;;;;;;;;;4401230;32;317972;-78
2023/07/02 01:31:44;;;;;;;12.20;8.00;;;;;;;;;;4391082;32;317786;-79
2023/07/02 01:34:12;;;;;;;14.18;7.47;;;;;;;;;;4400366;32;317815;-79
2023/07/02 01:36:40;;;;;;;14.75;8.18;;;;;;;;;;4389225;32;317846;-79
2023/07/02 01:39:09;;;;;;;16.50;9.25;;;;;;;;;;4400385;32;317944;-78
2023/07/02 01:41:42;;;;;;;21.70;9.57;;;;;;;;;;4387148;32;317822;-79
2023/07/02 01:44:10;;;;;;;17.98;9.18;;;;;;;;;;4398919;32;317835;-78
2023/07/02 01:46:37;;;;;;;15.80;8.85;;;;;;;;;;4391183;32;317623;-78
2023/07/02 01:49:04;;;;;;;13.38;8.52;;;;;;;;;;4401432;32;319563;-79
2023/07/02 01:51:32;;;;;;;12.98;8.13;;;;;;;;;;4390298;32;317692;-79
2023/07/02 01:53:59;;;;;;;14.15;7.82;;;;;;;;;;4400238;32;317621;-78
2023/07/02 01:56:28;;;;;;;11.32;7.70;;;;;;;;;;4401462;32;317485;-79
2023/07/02 01:58:55;;;;;;;17.58;8.05;;;;;;;;;;4385189;32;417048;-78
2023/07/02 02:01:23;;;;;;;16.62;8.18;;;;;;;;;;4400744;32;317773;-79
2023/07/02 02:03:50;;;;;;;16.00;7.90;;;;;;;;;;4393991;32;318063;-79
2023/07/02 02:06:18;;;;;;;16.12;8.63;;;;;;;;;;4403811;32;317875;-79
2023/07/02 02:08:45;;;;;;;11.18;7.75;;;;;;;;;;4392677;32;317639;-79
2023/07/02 02:11:12;;;;;;;15.07;8.93;;;;;;;;;;4404489;32;318052;-79
2023/07/02 02:13:41;;;;;;;13.13;7.28;;;;;;;;;;4392902;32;317837;-79
2023/07/02 02:16:09;;;;;;;12.77;8.20;;;;;;;;;;4404650;32;317787;-79
2023/07/02 02:18:36;;;;;;;20.73;8.48;;;;;;;;;;4391802;32;317941;-79
2023/07/02 02:21:04;;;;;;;13.43;8.63;;;;;;;;;;4404060;32;317496;-79
2023/07/02 02:23:31;;;;;;;14.52;8.15;;;;;;;;;;4391891;32;317878;-79
2023/07/02 02:25:58;;;;;;;12.68;8.73;;;;;;;;;;4404316;32;317843;-78
2023/07/02 02:28:26;;;;;;;12.88;8.48;;;;;;;;;;4402054;32;318109;-78
2023/07/02 02:30:54;;;;;;;13.77;8.05;;;;;;;;;;4394152;32;317886;-79
2023/07/02 02:33:23;;;;;;;17.80;9.27;;;;;;;;;;4402609;32;317772;-78
2023/07/02 02:35:50;;;;;;;12.55;8.95;;;;;;;;;;4393949;32;317583;-79
2023/07/02 02:38:18;;;;;;;15.13;8.05;;;;;;;;;;4402488;32;317818;-78
2023/07/02 02:40:45;;;;;;;17.00;9.82;;;;;;;;;;4391281;32;317800;-79
2023/07/02 02:43:13;;;;;;;16.08;8.73;;;;;;;;;;4403145;32;318001;-78
2023/07/02 02:45:40;;;;;;;16.70;8.80;;;;;;;;;;4392937;32;317812;-79
2023/07/02 02:48:09;;;;;;;12.30;8.27;;;;;;;;;;4403729;32;317748;-79
2023/07/02 02:50:41;;;;;;;14.80;8.55;;;;;;;;;;4392551;32;337090;-79
2023/07/02 02:53:08;;;;;;;12.82;8.32;;;;;;;;;;4402632;32;318386;-79
2023/07/02 02:55:36;;;;;;;15.52;8.50;;;;;;;;;;4391759;32;317861;-79
2023/07/02 02:58:04;;;;;;;15.27;7.82;;;;;;;;;;4401573;32;349286;-79
2023/07/02 03:00:32;;;;;;;20.77;8.85;;;;;;;;;;4392900;32;317559;-79
2023/07/02 03:02:59;;;;;;;12.68;8.65;;;;;;;;;;4402161;32;317752;-79
2023/07/02 03:05:28;;;;;;;16.15;8.13;;;;;;;;;;4402995;32;317787;-78
2023/07/02 03:07:55;;;;;;;16.42;7.95;;;;;;;;;;4389789;32;417159;-79
2023/07/02 03:10:24;;;;;;;16.55;8.23;;;;;;;;;;4402112;32;317554;-78
2023/07/02 03:12:51;;;;;;;17.30;8.57;;;;;;;;;;4392647;32;317795;-79
2023/07/02 03:15:18;;;;;;;15.30;8.13;;;;;;;;;;4402917;32;317763;-79
2023/07/02 03:17:46;;;;;;;13.52;8.10;;;;;;;;;;4390269;32;317702;-78
2023/07/02 03:20:13;;;;;;;14.65;8.68;;;;;;;;;;4403276;32;316471;-78
2023/07/02 03:22:42;;;;;;;17.17;9.23;;;;;;;;;;4391301;32;317935;-79
2023/07/02 03:25:10;;;;;;;18.65;9.68;;;;;;;;;;4402576;32;331340;-79
2023/07/02 03:27:37;;;;;;;12.18;7.87;;;;;;;;;;4392338;32;317692;-79
2023/07/02 03:30:06;;;;;;;15.90;8.85;;;;;;;;;;4402088;32;317631;-79
2023/07/02 03:32:34;;;;;;;15.27;9.27;;;;;;;;;;4393065;32;317672;-79
2023/07/02 03:35:01;;;;;;;15.88;8.07;;;;;;;;;;4401949;32;317660;-79
2023/07/02 03:37:28;;;;;;;13.13;8.45;;;;;;;;;;4402436;32;317641;-79
2023/07/02 03:39:58;;;;;;;17.23;9.13;;;;;;;;;;4389065;32;417208;-79
2023/07/02 03:42:25;;;;;;;15.05;7.57;;;;;;;;;;4403207;32;317873;-79
2023/07/02 03:44:53;;;;;;;11.93;7.87;;;;;;;;;;4391881;32;317646;-79
2023/07/02 03:47:21;;;;;;;12.07;8.52;;;;;;;;;;4402611;32;317497;-79
2023/07/02 03:49:49;;;;;;;14.25;8.93;;;;;;;;;;4392295;32;318037;-79
2023/07/02 03:52:16;;;;;;;11.23;8.60;;;;;;;;;;4402423;32;317757;-79
2023/07/02 03:54:43;;;;;;;10.60;7.25;;;;;;;;;;4392214;32;318098;-80
2023/07/02 03:57:12;;;;;;;15.55;8.90;;;;;;;;;;4401897;32;316400;-79
2023/07/02 03:59:40;;;;;;;16.92;8.40;;;;;;;;;;4391543;32;317804;-79
2023/07/02 04:02:07;;;;;;;16.10;8.60;;;;;;;;;;4401368;32;317681;-78
2023/07/02 04:04:35;;;;;;;13.43;7.72;;;;;;;;;;4392421;32;317977;-79
2023/07/02 04:07:02;;;;;;;19.00;8.20;;;;;;;;;;4400104;32;317797;-79
2023/07/02 04:09:32;;;;;;;11.88;8.35;;;;;;;;;;4390719;32;376343;-79
2023/07/02 04:12:00;;;;;;;16.85;8.70;;;;;;;;;;4402303;32;317631;-79
2023/07/02 04:14:28;;;;;;;19.67;9.57;;;;;;;;;;4401362;32;317748;-79
2023/07/02 04:16:56;;;;;;;12.43;8.25;;;;;;;;;;4388159;32;417206;-79
2023/07/02 04:19:23;;;;;;;15.15;8.57;;;;;;;;;;4402084;32;317810;-79
2023/07/02 04:21:51;;;;;;;10.65;7.65;;;;;;;;;;4388879;32;317563;-79
2023/07/02 04:24:18;;;;;;;16.17;8.63;;;;;;;;;;4402386;32;317912;-78
2023/07/02 04:26:45;;;;;;;17.42;9.85;;;;;;;;;;4391660;32;317724;-82
2023/07/02 04:29:13;;;;;;;10.52;8.68;;;;;;;;;;4400892;32;318290;-78
2023/07/02 04:31:42;;;;;;;19.62;8.48;;;;;;;;;;4389785;32;317992;-79
2023/07/02 04:34:09;;;;;;;12.15;8.88;;;;;;;;;;4401377;32;317692;-79
2023/07/02 04:36:36;;;;;;;13.52;8.07;;;;;;;;;;4391304;32;318033;-79
2023/07/02 04:39:04;;;;;;;11.65;8.77;;;;;;;;;;4402256;32;317570;-78
2023/07/02 04:41:32;;;;;;;17.80;8.98;;;;;;;;;;4390915;32;318144;-79
2023/07/02 04:44:00;;;;;;;18.52;9.38;;;;;;;;;;4402285;32;317976;-79
2023/07/02 04:46:28;;;;;;;15.32;8.02;;;;;;;;;;4400163;32;317737;-79
2023/07/02 04:48:58;;;;;;;14.43;8.85;;;;;;;;;;4389042;32;387059;-78
2023/07/02 04:51:25;;;;;;;22.30;8.73;;;;;;;;;;4402068;32;317639;-84
2023/07/02 04:53:52;;;;;;;16.65;9.35;;;;;;;;;;4391513;32;317847;-79
2023/07/02 04:56:20;;;;;;;11.75;7.78;;;;;;;;;;4399428;32;317737;-83
2023/07/02 04:58:47;;;;;;;12.80;9.10;;;;;;;;;;4388998;32;317946;-79
2023/07/02 05:01:15;;;;;;;16.60;9.43;;;;;;;;;;4401567;32;317846;-78
2023/07/02 05:03:42;;;;;;;12.27;8.27;;;;;;;;;;4390006;32;317752;-79
2023/07/02 05:06:11;;;;;;;17.80;9.38;;;;;;;;;;4401834;32;317819;-79
2023/07/02 05:08:39;;;;;;;14.15;8.75;;;;;;;;;;4391839;32;318258;-79
2023/07/02 05:11:06;;;;;;;13.75;8.85;;;;;;;;;;4400737;32;317800;-79
2023/07/02 05:13:33;;;;;;;18.77;8.88;;;;;;;;;;4391005;32;317923;-78
2023/07/02 05:16:01;;;;;;;12.18;8.15;;;;;;;;;;4400922;32;317829;-79
2023/07/02 05:18:28;;;;;;;10.30;8.10;;;;;;;;;;4400397;32;317907;-79
2023/07/02 05:20:56;;;;;;;16.87;8.85;;;;;;;;;;4389837;32;388154;-79
2023/07/02 05:23:25;;;;;;;10.93;7.75;;;;;;;;;;4399873;32;318209;-79
2023/07/02 05:25:52;;;;;;;11.52;7.90;;;;;;;;;;4388884;32;318120;-79
2023/07/02 05:28:19;;;;;;;15.40;8.30;;;;;;;;;;4401002;32;317980;-79
2023/07/02 05:30:47;;;;;;;15.35;8.07;;;;;;;;;;4389871;32;318384;-79
2023/07/02 05:33:15;;;;;;;15.18;8.73;;;;;;;;;;4400919;32;317874;-79
2023/07/02 05:35:42;;;;;;;12.23;8.37;;;;;;;;;;4387717;32;317885;-79
2023/07/02 05:38:09;;;;;;;15.73;9.10;;;;;;;;;;4400330;32;318024;-78
2023/07/02 05:40:38;;;;;;;15.80;8.32;;;;;;;;;;4391490;32;317990;-79
2023/07/02 05:43:05;;;;;;;12.45;8.02;;;;;;;;;;4401249;32;317839;-79
2023/07/02 05:45:33;;;;;;;16.92;8.82;;;;;;;;;;4390278;32;317838;-79
2023/07/02 05:48:01;;;;;;;15.35;9.05;;;;;;;;;;4400005;32;317750;-79
2023/07/02 05:50:28;;;;;;;15.27;8.25;;;;;;;;;;4400500;32;317872;-79
2023/07/02 05:52:55;;;;;;;11.38;7.95;;;;;;;;;;4387065;32;417335;-79
2023/07/02 05:55:23;;;;;;;9.68;7.07;;;;;;;;;;4401389;32;317667;-79
2023/07/02 05:57:52;;;;;;;14.40;8.27;;;;;;;;;;4388242;32;316772;-79
2023/07/02 06:00:19;;;;;;;10.85;7.85;;;;;;;;;;4399749;32;317798;-79
2023/07/02 06:02:48;;;;;;;12.18;7.30;;;;;;;;;;4390959;32;317650;-79
2023/07/02 06:05:16;;;;;;;11.63;6.53;;;;;;;;;;4400993;32;317668;-79
2023/07/02 06:07:43;;;;;;;11.52;7.78;;;;;;;;;;4388699;32;324861;-79
2023/07/02 06:10:11;;;;;;;10.75;7.28;;;;;;;;;;4401142;32;318145;-79
2023/07/02 06:12:38;;;;;;;15.85;7.62;;;;;;;;;;4388739;32;317871;-79
2023/07/02 06:15:08;;;;;;;12.82;7.25;;;;;;;;;;4401426;32;317874;-78
2023/07/02 06:17:36;;;;;;;11.12;7.07;;;;;;;;;;4391347;32;317639;-79
2023/07/02 06:20:06;;;;;;;10.57;8.15;;;;;;;;;;4400118;32;317757;-78
2023/07/02 06:22:33;;;;;;;11.25;8.77;;;;;;;;;;4388955;32;317808;-79
2023/07/02 06:25:00;;;;;;;12.75;6.60;;;;;;;;;;4401383;32;316620;-79
2023/07/02 06:27:28;;;;;;;12.45;7.35;;;;;;;;;;4400774;32;336168;-78
2023/07/02 06:29:55;;;;;;;16.98;8.40;;;;;;;;;;4387848;32;388176;-79
2023/07/02 06:32:24;;;;;;;21.02;7.70;;;;;;;;;;4400991;32;317741;-79
2023/07/02 06:34:52;;;;;;;12.55;7.57;;;;;;;;;;4390363;32;327107;-79
2023/07/02 06:37:19;;;;;;;15.65;7.30;;;;;;;;;;4398813;32;317863;-78
2023/07/02 06:39:47;;;;;;;10.18;6.97;;;;;;;;;;4391123;32;317727;-79
2023/07/02 06:42:14;;;;;;;11.45;7.07;;;;;;;;;;4398896;32;317643;-79
2023/07/02 06:44:42;;;;;;;10.48;7.28;;;;;;;;;;4390990;32;317722;-79
2023/07/02 06:47:10;;;;;;;10.07;6.87;;;;;;;;;;4400246;32;317659;-79
2023/07/02 06:49:39;;;;;;;11.75;7.68;;;;;;;;;;4390780;32;317817;-79
2023/07/02 06:52:07;;;;;;;10.75;7.10;;;;;;;;;;4403317;32;318052;-79
2023/07/02 06:54:34;;;;;;;9.63;6.70;;;;;;;;;;4393295;32;317714;-79
2023/07/02 06:57:02;;;;;;;12.50;7.35;;;;;;;;;;4404142;32;316899;-78
2023/07/02 06:59:30;;;;;;;7.35;5.82;;;;;;;;;;4392496;32;317993;-79
2023/07/02 07:01:57;;;;;;;13.88;7.72;;;;;;;;;;4403001;32;339906;-78
2023/07/02 07:04:24;;;;;;;10.73;7.35;;;;;;;;;;4402461;32;317845;-78
2023/07/02 07:06:55;;;;;;;10.70;7.05;;;;;;;;;;4392609;32;318213;-78
2023/07/02 07:09:22;;;;;;;10.10;7.28;;;;;;;;;;4402055;32;350210;-78
2023/07/02 07:11:49;;;;;;;9.77;6.20;;;;;;;;;;4392684;32;317884;-78
2023/07/02 07:14:17;;;;;;;9.63;6.60;;;;;;;;;;4403677;32;316777;-78
2023/07/02 07:16:44;;;;;;;9.75;7.18;;;;;;;;;;4390243;32;317043;-78
2023/07/02 07:19:12;;;;;;;14.07;6.85;;;;;;;;;;4403823;32;316928;-78
2023/07/02 07:21:39;;;;;;;12.02;7.53;;;;;;;;;;4391008;32;317850;-78
2023/07/02 07:24:09;;;;;;;14.30;7.07;;;;;;;;;;4403001;32;317892;-78
2023/07/02 07:26:36;;;;;;;11.95;7.47;;;;;;;;;;4392324;32;317796;-78
2023/07/02 07:29:05;;;;;;;11.30;7.28;;;;;;;;;;4402126;32;317751;-78
2023/07/02 07:31:34;;;;;;;11.57;6.75;;;;;;;;;;4389437;32;317645;-78
2023/07/02 07:34:01;;;;;;;8.70;6.53;;;;;;;;;;4402906;32;332450;-78
2023/07/02 07:36:28;;;;;;;10.35;7.07;;;;;;;;;;4401618;32;316985;-79
2023/07/02 07:38:56;;;;;;;9.93;6.18;;;;;;;;;;4390231;32;417243;-78
2023/07/02 07:41:25;;;;;;;8.27;6.15;;;;;;;;;;4402257;32;316813;-82
2023/07/02 07:43:52;;;;;;;11.88;7.12;;;;;;;;;;4393057;32;326147;-78
2023/07/02 07:46:19;;;;;;;15.68;6.53;;;;;;;;;;4401574;32;317817;-78
2023/07/02 07:48:46;;;;;;;9.10;6.25;;;;;;;;;;4391721;32;318285;-78
2023/07/02 07:51:14;;;;;;;11.20;6.97;;;;;;;;;;4403246;32;316856;-78
2023/07/02 07:53:42;;;;;;;7.68;6.10;;;;;;;;;;4391407;32;317970;-78
2023/07/02 07:56:10;;;;;;;8.57;6.15;;;;;;;;;;4402698;32;316662;-78
2023/07/02 07:58:39;;;;;;;9.63;6.57;;;;;;;;;;4390553;32;339221;-78
2023/07/02 08:01:06;;;;;;;9.98;6.60;;;;;;;;;;4401789;32;342240;-78
2023/07/02 08:03:33;;;;;;;8.88;5.90;;;;;;;;;;4390288;32;316809;-78
2023/07/02 08:06:01;;;;;;;10.98;7.07;;;;;;;;;;4401841;32;316879;-78
2023/07/02 08:08:28;;;;;;;8.07;5.90;;;;;;;;;;4401796;32;335221;-78
2023/07/02 08:10:55;;;;;;;10.40;6.60;;;;;;;;;;4388825;32;416099;-78
2023/07/02 08:13:23;;;;;;;9.60;6.10;;;;;;;;;;4402618;32;317756;-78
2023/07/02 08:15:52;;;;;;;12.80;7.00;;;;;;;;;;4391515;32;316674;-78
2023/07/02 08:18:19;;;;;;;13.20;6.90;;;;;;;;;;4402102;32;317862;-78
2023/07/02 08:20:46;;;;;;;15.90;7.07;;;;;;;;;;4391398;32;318204;-78
2023/07/02 08:23:13;;;;;;;12.25;7.05;;;;;;;;;;4401082;32;318286;-78
2023/07/02 08:25:41;;;;;;;11.48;6.68;;;;;;;;;;4392361;32;317804;-78
2023/07/02 08:28:08;;;;;;;10.60;6.97;;;;;;;;;;4400129;32;337879;-78
2023/07/02 08:30:36;;;;;;;11.20;7.75;;;;;;;;;;4391838;32;317711;-78
2023/07/02 08:33:04;;;;;;;8.65;7.03;;;;;;;;;;4401928;32;318019;-78
2023/07/02 08:35:32;;;;;;;7.25;6.25;;;;;;;;;;4391348;32;316823;-78
2023/07/02 08:37:59;;;;;;;9.90;7.57;;;;;;;;;;4399979;32;316937;-78
2023/07/02 08:40:28;;;;;;;11.63;7.00;;;;;;;;;;4402218;32;316653;-78
2023/07/02 08:42:56;;;;;;;10.10;6.97;;;;;;;;;;4387397;32;417458;-78
2023/07/02 08:45:25;;;;;;;11.43;6.78;;;;;;;;;;4402265;32;318179;-78
2023/07/02 08:47:54;;;;;;;9.77;6.35;;;;;;;;;;4392081;32;317893;-78
2023/07/02 08:50:23;;;;;;;15.77;7.00;;;;;;;;;;4401547;32;315699;-78
2023/07/02 08:52:51;;;;;;;10.50;6.65;;;;;;;;;;4391516;32;317784;-78
2023/07/02 08:55:19;;;;;;;11.60;6.70;;;;;;;;;;4401839;32;318058;-78
2023/07/02 08:57:51;;;;;;;10.17;6.67;;;;;;;;;;4390305;32;341923;-78
2023/07/02 09:00:19;;;;;;;11.93;7.70;;;;;;;;;;4401105;32;317806;-78
2023/07/02 09:02:47;;;;;;;13.70;7.70;;;;;;;;;;4389609;32;318023;-78
2023/07/02 09:05:14;;;;;;;12.10;6.82;;;;;;;;;;4399405;32;317976;-78
2023/07/02 09:07:47;;;;;;;16.02;7.47;;;;;;;;;;4391942;32;318176;-78
2023/07/02 09:10:27;;;;;;;8.95;6.53;;;;;;;;;;4401369;32;317693;-78
2023/07/02 09:13:05;;;;;;;13.02;6.62;;;;;;;;;;4387489;32;416014;-78
2023/07/02 09:15:37;;;;;;;9.48;7.32;;;;;;;;;;4390974;32;317836;-79
2023/07/02 09:18:16;;;;;;;10.82;6.93;;;;;;;;;;4401941;32;316930;-77
2023/07/02 09:20:44;;;;;;;15.73;6.57;;;;;;;;;;4391202;32;317929;-78
2023/07/02 09:23:14;;;;;;;9.88;6.70;;;;;;;;;;4399905;32;317850;-78
2023/07/02 09:25:42;;;;;;;8.50;6.40;;;;;;;;;;4389870;32;316839;-79
2023/07/02 09:28:16;;;;;;;9.48;6.45;;;;;;;;;;4401692;32;316902;-78
2023/07/02 09:30:54;;;;;;;8.95;6.37;;;;;;;;;;4390347;32;317083;-79
2023/07/02 09:33:22;;;;;;;10.32;6.93;;;;;;;;;;4400602;32;320007;-79
2023/07/02 09:35:51;;;;;;;13.00;7.40;;;;;;;;;;4389961;32;317743;-79
2023/07/02 09:38:20;;;;;;;9.32;6.75;;;;;;;;;;4399891;32;317869;-79
2023/07/02 09:40:50;;;;;;;9.10;6.40;;;;;;;;;;4391390;32;316739;-79
2023/07/02 09:43:18;;;;;;;8.75;6.45;;;;;;;;;;4400299;32;317137;-79
2023/07/02 09:45:48;;;;;;;14.45;7.15;;;;;;;;;;4390310;32;317088;-79
2023/07/02 09:48:17;;;;;;;10.55;6.82;;;;;;;;;;4398989;32;317927;-79
2023/07/02 09:50:45;;;;;;;8.98;6.53;;;;;;;;;;4391086;32;317839;-79
2023/07/02 09:53:13;;;;;;;9.27;6.15;;;;;;;;;;4400180;32;316713;-79
2023/07/02 09:55:44;;;;;;;11.77;6.75;;;;;;;;;;4388827;32;316954;-79
2023/07/02 09:58:12;;;;;;;10.80;6.30;;;;;;;;;;4401457;32;318035;-78
2023/07/02 10:00:40;;;;;;;10.85;6.97;;;;;;;;;;4389724;32;318161;-79
2023/07/02 10:03:08;;;;;;;10.52;7.32;;;;;;;;;;4400474;32;318320;-79
2023/07/02 10:05:35;;;;;;;12.35;7.10;;;;;;;;;;4388582;32;345290;-79
2023/07/02 10:08:15;;;;;;;13.65;7.05;;;;;;;;;;4401359;32;317764;-78
2023/07/02 10:10:44;;;;;;;8.80;6.30;;;;;;;;;;4390245;32;317786;-79
2023/07/02 10:13:11;;;;;;;11.55;7.15;;;;;;;;;;4400454;32;316704;-79
2023/07/02 10:15:39;;;;;;;13.60;7.17;;;;;;;;;;4388507;32;317889;-80
2023/07/02 10:18:07;;;;;;;7.72;6.07;;;;;;;;;;4400836;32;317823;-80
2023/07/02 10:20:36;;;;;;;11.07;6.37;;;;;;;;;;4389243;32;318541;-78
2023/07/02 10:23:05;;;;;;;14.63;6.70;;;;;;;;;;4399886;32;317847;-79
2023/07/02 10:25:36;;;;;;;9.82;6.25;;;;;;;;;;4390903;32;317909;-81
2023/07/02 10:28:16;;;;;;;8.25;5.32;;;;;;;;;;4403526;32;316859;-85
2023/07/02 10:30:43;;;;;;;8.35;6.20;;;;;;;;;;4392891;32;317281;-80
2023/07/02 10:33:13;;;;;;;8.93;5.72;;;;;;;;;;4404194;32;317066;-80
2023/07/02 10:35:44;;;;;;;6.78;5.18;;;;;;;;;;4392608;32;316972;-79
2023/07/02 10:38:16;;;;;;;12.18;6.60;;;;;;;;;;4403201;32;354180;-79
2023/07/02 10:40:43;;;;;;;16.35;6.30;;;;;;;;;;4393796;32;318159;-79
2023/07/02 10:43:12;;;;;;;8.73;6.43;;;;;;;;;;4403555;32;317973;-79
2023/07/02 10:45:40;;;;;;;8.85;6.82;;;;;;;;;;4392502;32;316776;-79
2023/07/02 10:48:11;;;;;;;18.75;7.50;;;;;;;;;;4403243;32;316803;-79
2023/07/02 10:50:38;;;;;;;8.52;6.75;;;;;;;;;;4393196;32;317912;-79
2023/07/02 10:53:06;;;;;;;8.27;6.20;;;;;;;;;;4402853;32;317059;-79
2023/07/02 10:55:33;;;;;;;8.23;6.12;;;;;;;;;;4392871;32;316752;-79
2023/07/02 10:58:06;;;;;;;12.63;6.70;;;;;;;;;;4401880;32;316691;-79
2023/07/02 11:00:45;;;;;;;12.10;6.62;;;;;;;;;;4393011;32;317696;-79
2023/07/02 11:03:18;;;;;;;9.20;6.55;;;;;;;;;;4403227;32;317695;-79
2023/07/02 11:05:46;;;;;;;12.48;6.35;;;;;;;;;;4391341;32;316869;-79
2023/07/02 11:08:13;;;;;;;7.35;6.15;;;;;;;;;;4402312;32;317648;-79
2023/07/02 11:10:41;;;;;;;8.20;6.20;;;;;;;;;;4389133;32;316629;-79
2023/07/02 11:13:15;;;;;;;8.30;5.70;;;;;;;;;;4403014;32;316562;-79
2023/07/02 11:15:46;;;;;;;7.53;6.10;;;;;;;;;;4393009;32;316775;-79
2023/07/02 11:18:14;;;;;;;8.50;6.55;;;;;;;;;;4403301;32;316884;-79
2023/07/02 11:20:42;;;;;;;11.60;5.55;;;;;;;;;;4393101;32;317025;-79
2023/07/02 11:23:19;;;;;;;7.62;5.53;;;;;;;;;;4402626;32;317952;-79
2023/07/02 11:25:56;;;;;;;6.68;5.37;;;;;;;;;;4393134;32;316883;-78
2023/07/02 11:28:24;;;;;;;6.50;5.10;;;;;;;;;;4401974;32;316688;-78
2023/07/02 11:30:54;;;;;;;9.00;4.97;;;;;;;;;;4392646;32;316919;-77
2023/07/02 11:33:33;;;;;;;8.82;5.55;;;;;;;;;;4402750;32;316657;-78
2023/07/02 11:36:00;;;;;;;7.97;5.12;;;;;;;;;;4389554;32;416989;-78
2023/07/02 11:38:28;;;;;;;6.57;5.78;;;;;;;;;;4402063;32;316937;-77
2023/07/02 11:40:55;;;;;;;8.13;5.15;;;;;;;;;;4387850;32;419054;-77
2023/07/02 11:43:23;;;;;;;10.57;5.72;;;;;;;;;;4400705;32;349904;-79
2023/07/02 11:45:50;;;;;;;7.80;5.75;;;;;;;;;;4392204;32;317897;-79
2023/07/02 11:48:19;;;;;;;6.80;5.40;;;;;;;;;;4401662;32;335838;-78
2023/07/02 11:50:46;;;;;;;7.50;5.40;;;;;;;;;;4391620;32;316777;-79
2023/07/02 11:53:14;;;;;;;6.82;5.12;;;;;;;;;;4402324;32;316940;-79
2023/07/02 11:55:41;;;;;;;6.28;5.57;;;;;;;;;;4392089;32;316748;-79
2023/07/02 11:58:08;;;;;;;8.55;6.20;;;;;;;;;;4401922;32;316820;-79
2023/07/02 12:00:36;;;;;;;7.10;5.90;;;;;;;;;;4390859;32;316846;-79
2023/07/02 12:03:04;;;;;;;6.37;5.65;;;;;;;;;;4402826;32;316797;-86
2023/07/02 12:05:33;;;;;;;8.57;6.40;;;;;;;;;;4390070;32;316856;-80
2023/07/02 12:08:02;;;;;;;7.45;5.75;;;;;;;;;;4400110;32;316669;-83
2023/07/02 12:10:30;;;;;;;8.40;5.87;;;;;;;;;;4391609;32;316876;-80
2023/07/02 12:12:57;;;;;;;8.35;5.75;;;;;;;;;;4402844;32;316940;-83
2023/07/02 12:15:24;;;;;;;11.40;6.75;;;;;;;;;;4400663;32;316521;-80
2023/07/02 12:17:52;;;;;;;9.40;6.10;;;;;;;;;;4390331;32;317667;-79
2023/07/02 12:20:19;;;;;;;9.52;6.12;;;;;;;;;;4401425;32;316916;-79
2023/07/02 12:22:48;;;;;;;7.12;5.43;;;;;;;;;;4391701;32;316624;-79
2023/07/02 12:25:15;;;;;;;11.05;5.78;;;;;;;;;;4401180;32;343114;-79
2023/07/02 12:27:43;;;;;;;6.25;5.40;;;;;;;;;;4392250;32;317732;-79
2023/07/02 12:30:11;;;;;;;8.50;5.60;;;;;;;;;;4402205;32;321763;-79
2023/07/02 12:32:39;;;;;;;8.85;5.53;;;;;;;;;;4392432;32;316763;-79
2023/07/02 12:35:08;;;;;;;8.95;6.15;;;;;;;;;;4400493;32;317062;-80
2023/07/02 12:37:35;;;;;;;6.57;5.45;;;;;;;;;;4391829;32;346954;-78
2023/07/02 12:40:05;;;;;;;7.28;5.18;;;;;;;;;;4400684;32;316641;-80
2023/07/02 12:42:32;;;;;;;8.52;6.15;;;;;;;;;;4392101;32;319293;-78
2023/07/02 12:44:59;;;;;;;10.65;6.03;;;;;;;;;;4399670;32;335090;-79
2023/07/02 12:47:27;;;;;;;7.25;6.15;;;;;;;;;;4399878;32;318077;-79
2023/07/02 12:49:54;;;;;;;9.48;6.55;;;;;;;;;;4391432;32;317028;-79
2023/07/02 12:52:22;;;;;;;7.15;5.65;;;;;;;;;;4401399;32;316859;-77
2023/07/02 12:54:49;;;;;;;8.18;5.47;;;;;;;;;;4391538;32;316799;-78
2023/07/02 12:57:19;;;;;;;7.37;5.80;;;;;;;;;;4400944;32;316579;-84
2023/07/02 12:59:46;;;;;;;10.43;6.70;;;;;;;;;;4390008;32;316729;-80
2023/07/02 13:02:13;;;;;;;7.70;6.22;;;;;;;;;;4401203;32;317698;-79
2023/07/02 13:04:41;;;;;;;7.35;6.53;;;;;;;;;;4390777;32;316762;-80
2023/07/02 13:07:08;;;;;;;12.60;7.10;;;;;;;;;;4401931;32;316764;-77
2023/07/02 13:09:35;;;;;;;9.50;6.68;;;;;;;;;;4391253;32;317719;-78
2023/07/02 13:12:03;;;;;;;8.38;6.43;;;;;;;;;;4400718;32;316804;-79
2023/07/02 13:14:32;;;;;;;8.82;7.05;;;;;;;;;;4390965;32;316653;-81
2023/07/02 13:17:00;;;;;;;11.00;7.05;;;;;;;;;;4401675;32;316912;-78
2023/07/02 13:19:28;;;;;;;8.63;6.55;;;;;;;;;;4401781;32;317787;-79
2023/07/02 13:21:55;;;;;;;8.40;6.80;;;;;;;;;;4388248;32;416129;-78
2023/07/02 13:24:23;;;;;;;9.88;6.60;;;;;;;;;;4399909;32;349825;-78
2023/07/02 13:26:50;;;;;;;10.18;6.47;;;;;;;;;;4391113;32;316582;-78
2023/07/02 13:29:18;;;;;;;9.63;7.10;;;;;;;;;;4400293;32;338261;-78
2023/07/02 13:31:47;;;;;;;10.07;6.90;;;;;;;;;;4388532;32;316602;-79
2023/07/02 13:34:14;;;;;;;8.63;6.68;;;;;;;;;;4400594;32;317737;-78
2023/07/02 13:36:42;;;;;;;9.88;7.32;;;;;;;;;;4390334;32;316754;-78
2023/07/02 13:39:09;;;;;;;9.65;7.55;;;;;;;;;;4400806;32;316784;-78
2023/07/02 13:41:37;;;;;;;9.60;6.27;;;;;;;;;;4389944;32;316652;-79
2023/07/02 13:44:05;;;;;;;9.65;6.93;;;;;;;;;;4401487;32;316762;-79
2023/07/02 13:46:32;;;;;;;10.98;6.97;;;;;;;;;;4390172;32;316839;-79
2023/07/02 13:49:01;;;;;;;8.07;6.78;;;;;;;;;;4400777;32;317746;-79
2023/07/02 13:51:28;;;;;;;9.60;7.40;;;;;;;;;;4401259;32;316920;-84
2023/07/02 13:53:56;;;;;;;9.60;6.75;;;;;;;;;;4386369;32;416040;-79
2023/07/02 13:56:23;;;;;;;9.60;6.72;;;;;;;;;;4401072;32;316846;-79
2023/07/02 13:59:04;;;;;;;10.63;5.72;;;;;;;;;;4391947;32;316787;-79
2023/07/02 14:01:32;;;;;;;9.23;7.28;;;;;;;;;;4392330;32;317728;-80
2023/07/02 14:03:59;;;;;;;13.82;6.87;;;;;;;;;;4402884;32;316960;-79
2023/07/02 14:06:27;;;;;;;8.35;7.00;;;;;;;;;;4403055;32;317673;-80
2023/07/02 14:08:55;;;;;;;9.55;6.30;;;;;;;;;;4392874;32;316903;-78
2023/07/02 14:11:23;;;;;;;7.95;6.37;;;;;;;;;;4403414;32;317029;-79
2023/07/02 14:13:51;;;;;;;11.88;6.93;;;;;;;;;;4393235;32;317617;-79
2023/07/02 14:16:20;;;;;;;7.60;6.03;;;;;;;;;;4402697;32;317788;-78
2023/07/02 14:18:47;;;;;;;10.15;7.30;;;;;;;;;;4393126;32;317112;-78
2023/07/02 14:21:15;;;;;;;9.25;7.37;;;;;;;;;;4403869;32;317803;-79
2023/07/02 14:23:42;;;;;;;9.00;7.03;;;;;;;;;;4391971;32;316622;-79
2023/07/02 14:26:10;;;;;;;9.55;6.35;;;;;;;;;;4402630;32;316941;-79